createdAt,value
2023-04-17T00:00:01.959Z,99949.09
2023-04-17T00:03:31.849Z,99952.59
2023-04-17T00:06:35.423Z,99955.56
2023-04-17T00:09:38.059Z,99950.94
2023-04-17T00:12:40.650Z,99951.69
2023-04-17T00:15:44.204Z,99949.06
2023-04-17T00:18:46.785Z,99950.84
2023-04-17T00:21:49.317Z,99941.22
2023-04-17T00:24:52.050Z,99941.34
2023-04-17T00:27:54.638Z,99945.81
2023-04-17T00:30:58.910Z,99942.97
2023-04-17T00:34:02.320Z,99941.94
2023-04-17T00:37:04.944Z,99947.09
2023-04-17T00:40:07.970Z,99940.94
2023-04-17T00:43:10.715Z,99946.09
2023-04-17T00:46:13.562Z,99941.06
2023-04-17T00:49:16.287Z,99939.16
2023-04-17T00:52:25.818Z,99946.97
2023-04-17T00:55:29.311Z,99948.72
2023-04-17T00:58:33.219Z,99941.66
2023-04-17T01:01:36.140Z,99943.31
2023-04-17T01:04:38.895Z,99937.09
2023-04-17T01:07:42.071Z,99937.06
2023-04-17T01:10:44.842Z,99946.75
2023-04-17T01:13:48.031Z,99944.97
2023-04-17T01:16:51.076Z,99945.81
2023-04-17T01:19:54.298Z,99942.22
2023-04-17T01:23:00.156Z,99940.37
2023-04-17T01:26:03.006Z,99942.91
2023-04-17T01:29:05.746Z,99938.59
2023-04-17T01:32:08.672Z,99930.63
2023-04-17T01:35:12.057Z,99930.66
2023-04-17T01:38:14.690Z,99935.81
2023-04-17T01:41:17.624Z,99934.94
2023-04-17T01:44:21.010Z,99932.44
2023-04-17T01:47:23.824Z,99929.66
2023-04-17T01:50:27.712Z,99934.94
2023-04-17T01:53:31.187Z,99926.16
2023-04-17T01:56:34.178Z,99931.44
2023-04-17T01:59:36.926Z,99929.62
2023-04-17T02:02:39.756Z,99927.84
2023-04-17T02:05:48.659Z,99926.19
2023-04-17T02:08:51.086Z,99933.22
2023-04-17T02:11:54.099Z,99924.50
2023-04-17T02:15:01.169Z,99927.94
2023-04-17T02:18:06.310Z,99933.13
2023-04-17T02:21:10.457Z,99930.47
2023-04-17T02:24:13.047Z,99937.59
2023-04-17T02:27:15.635Z,99936.69
2023-04-17T02:30:19.180Z,99936.62
2023-04-17T02:33:21.800Z,99936.72
2023-04-17T02:36:25.020Z,99922.69
2023-04-17T02:39:27.780Z,99926.19
2023-04-17T02:42:31.397Z,99928.81
2023-04-17T02:45:33.992Z,99927.06
2023-04-17T02:48:36.745Z,99928.78
2023-04-17T02:51:39.504Z,99925.37
2023-04-17T02:54:42.041Z,99922.84
2023-04-17T02:57:45.111Z,99936.00
2023-04-17T03:00:47.957Z,99927.19
2023-04-17T03:03:52.507Z,99930.56
2023-04-17T03:06:55.818Z,99928.09
2023-04-17T03:09:59.221Z,99940.16
2023-04-17T03:13:03.684Z,99939.31
2023-04-17T03:16:08.187Z,99940.09
2023-04-17T03:19:11.327Z,99943.50
2023-04-17T03:22:14.128Z,99938.31
2023-04-17T03:25:16.893Z,99940.87
2023-04-17T03:28:20.412Z,99932.09
2023-04-17T03:31:24.550Z,99936.44
2023-04-17T03:34:28.380Z,99931.41
2023-04-17T03:37:32.049Z,99940.78
2023-04-17T03:40:34.770Z,99935.66
2023-04-17T03:43:37.321Z,99939.22
2023-04-17T03:46:40.242Z,99941.66
2023-04-17T03:49:43.431Z,99938.06
2023-04-17T03:52:46.607Z,99940.78
2023-04-17T03:55:49.456Z,99938.16
2023-04-17T03:58:55.710Z,99947.84
2023-04-17T04:01:58.743Z,99942.69
2023-04-17T04:05:02.949Z,99947.81
2023-04-17T04:08:05.828Z,99948.69
2023-04-17T04:11:09.216Z,99952.97
2023-04-17T04:14:12.972Z,99955.72
2023-04-17T04:17:15.983Z,99953.25
2023-04-17T04:20:18.710Z,99953.16
2023-04-17T04:23:21.689Z,99956.72
2023-04-17T04:26:24.779Z,99960.06
2023-04-17T04:29:27.973Z,99967.91
2023-04-17T04:32:31.911Z,99970.53
2023-04-17T04:35:35.495Z,99974.09
2023-04-17T04:38:38.342Z,99974.94
2023-04-17T04:41:46.244Z,99984.59
2023-04-17T04:44:49.312Z,99988.09
2023-04-17T04:47:53.042Z,100001.28
2023-04-17T04:50:56.035Z,99990.09
2023-04-17T04:53:58.764Z,99997.06
2023-04-17T04:57:01.448Z,99989.25
2023-04-17T05:00:06.661Z,99994.63
2023-04-17T05:03:10.180Z,100005.28
2023-04-17T05:06:14.893Z,100006.09
2023-04-17T05:09:18.623Z,100004.41
2023-04-17T05:12:22.924Z,100003.56
2023-04-17T05:15:25.744Z,100006.28
2023-04-17T05:18:28.592Z,100003.81
2023-04-17T05:21:32.235Z,100013.47
2023-04-17T05:24:36.196Z,100010.19
2023-04-17T05:27:38.832Z,100021.56
2023-04-17T05:30:41.806Z,100009.53
2023-04-17T05:33:46.237Z,100015.06
2023-04-17T05:36:48.902Z,100021.09
2023-04-17T05:39:51.608Z,100012.38
2023-04-17T05:42:54.200Z,100020.31
2023-04-17T05:45:56.932Z,100011.03
2023-04-17T05:48:59.550Z,100011.22
2023-04-17T05:52:02.219Z,100017.31
2023-04-17T05:55:05.812Z,100020.06
2023-04-17T05:58:23.241Z,100025.78
2023-04-17T06:01:29.981Z,100025.12
2023-04-17T06:04:33.686Z,100025.78
2023-04-17T06:07:38.467Z,100026.19
2023-04-17T06:10:41.768Z,100027.88
2023-04-17T06:13:44.335Z,100029.00
2023-04-17T06:16:47.420Z,100035.94
2023-04-17T06:19:51.762Z,100036.84
2023-04-17T06:22:54.712Z,100030.03
2023-04-17T06:25:58.307Z,100038.88
2023-04-17T06:29:01.459Z,100045.03
2023-04-17T06:32:06.444Z,100041.66
2023-04-17T06:35:10.555Z,100041.66
2023-04-17T06:38:13.778Z,100046.06
2023-04-17T06:41:16.841Z,100046.22
2023-04-17T06:44:19.212Z,100046.28
2023-04-17T06:47:22.401Z,100046.22
2023-04-17T06:50:24.884Z,100048.91
2023-04-17T06:53:28.048Z,100048.03
2023-04-17T06:56:30.500Z,100063.09
2023-04-17T06:59:34.338Z,100057.97
2023-04-17T07:02:36.937Z,100061.75
2023-04-17T07:05:39.999Z,100061.72
2023-04-17T07:08:42.495Z,100063.75
2023-04-17T07:11:45.488Z,100064.69
2023-04-17T07:14:48.339Z,100057.06
2023-04-17T07:17:51.611Z,100059.84
2023-04-17T07:20:54.011Z,100060.94
2023-04-17T07:23:56.967Z,100061.91
2023-04-17T07:26:59.310Z,100057.63
2023-04-17T07:30:02.349Z,100063.09
2023-04-17T07:33:04.813Z,100057.13
2023-04-17T07:36:09.623Z,100052.75
2023-04-17T07:39:12.294Z,100059.91
2023-04-17T07:42:16.562Z,100059.06
2023-04-17T07:45:19.701Z,100050.25
2023-04-17T07:48:23.150Z,100062.59
2023-04-17T07:51:26.208Z,100063.50
2023-04-17T07:54:30.800Z,100068.78
2023-04-17T07:57:36.231Z,100072.31
2023-04-17T08:00:42.095Z,100071.16
2023-04-17T08:03:45.368Z,100059.44
2023-04-17T08:06:48.250Z,100061.66
2023-04-17T08:09:51.208Z,100063.03
2023-04-17T08:12:54.046Z,100058.16
2023-04-17T08:15:56.722Z,100047.00
2023-04-17T08:18:59.729Z,100052.59
2023-04-17T08:22:03.956Z,100053.19
2023-04-17T08:25:09.363Z,100053.69
2023-04-17T08:28:11.921Z,100055.28
2023-04-17T08:31:15.040Z,100058.75
2023-04-17T08:34:17.734Z,100052.12
2023-04-17T08:37:20.405Z,100053.66
2023-04-17T08:40:25.069Z,100052.22
2023-04-17T08:43:29.177Z,100047.59
2023-04-17T08:46:33.720Z,100048.06
2023-04-17T08:49:42.158Z,100048.59
2023-04-17T08:52:49.051Z,100050.94
2023-04-17T08:55:53.236Z,100051.38
2023-04-17T08:58:56.122Z,100039.97
2023-04-17T09:02:02.359Z,100039.28
2023-04-17T09:05:18.426Z,100042.22
2023-04-17T09:08:24.354Z,100039.38
2023-04-17T09:11:27.415Z,100036.59
2023-04-17T09:14:30.738Z,100041.91
2023-04-17T09:17:34.775Z,100039.69
2023-04-17T09:20:49.007Z,100040.91
2023-04-17T09:23:56.289Z,100040.69
2023-04-17T09:27:19.016Z,100047.19
2023-04-17T09:30:24.666Z,100034.81
2023-04-17T09:33:27.263Z,100027.25
2023-04-17T09:36:34.093Z,100041.00
2023-04-17T09:39:37.268Z,100037.00
2023-04-17T09:42:53.510Z,100028.19
2023-04-17T09:45:56.129Z,100036.44
2023-04-17T09:49:01.644Z,100020.31
2023-04-17T09:52:04.337Z,100029.19
2023-04-17T09:55:07.606Z,100025.38
2023-04-17T09:58:10.630Z,100025.81
2023-04-17T10:01:14.021Z,100028.34
2023-04-17T10:04:17.326Z,100028.31
2023-04-17T10:07:20.193Z,100029.97
2023-04-17T10:10:33.436Z,100025.03
2023-04-17T10:13:38.755Z,100025.31
2023-04-17T10:16:47.155Z,100020.41
2023-04-17T10:19:49.887Z,100018.16
2023-04-17T10:22:56.692Z,100021.06
2023-04-17T10:26:19.235Z,100029.78
2023-04-17T10:29:41.715Z,100020.31
2023-04-17T10:33:09.184Z,100015.28
2023-04-17T10:36:32.264Z,100008.91
2023-04-17T10:39:55.130Z,100008.97
2023-04-17T10:43:17.806Z,100006.69
2023-04-17T10:46:25.664Z,100011.66
2023-04-17T10:49:28.261Z,100005.03
2023-04-17T10:52:44.721Z,100010.94
2023-04-17T10:55:49.383Z,100014.97
2023-04-17T10:58:58.871Z,100011.59
2023-04-17T11:02:04.263Z,100006.31
2023-04-17T11:05:07.802Z,100007.41
2023-04-17T11:08:11.130Z,100012.84
2023-04-17T11:11:16.795Z,100006.81
2023-04-17T11:14:20.375Z,100007.94
2023-04-17T11:17:23.185Z,100008.78
2023-04-17T11:20:30.172Z,100000.63
2023-04-17T11:23:34.108Z,99999.75
2023-04-17T11:26:43.516Z,100002.03
2023-04-17T11:29:46.476Z,99998.47
2023-04-17T11:32:49.141Z,100004.72
2023-04-17T11:35:54.133Z,99991.75
2023-04-17T11:38:57.252Z,99996.81
2023-04-17T11:42:00.593Z,99995.91
2023-04-17T11:45:04.936Z,99994.47
2023-04-17T11:48:09.116Z,99984.25
2023-04-17T11:51:13.630Z,99983.47
2023-04-17T11:54:37.069Z,99991.53
2023-04-17T11:57:45.634Z,99989.78
2023-04-17T12:01:04.023Z,99989.53
2023-04-17T12:04:19.688Z,99979.72
2023-04-17T12:07:26.212Z,99993.53
2023-04-17T12:10:38.978Z,99996.84
2023-04-17T12:13:41.232Z,99988.53
2023-04-17T12:16:44.129Z,99982.88
2023-04-17T12:19:46.892Z,99992.28
2023-04-17T12:22:49.788Z,99991.06
2023-04-17T12:25:52.115Z,99995.13
2023-04-17T12:28:56.801Z,99989.72
2023-04-17T12:31:59.329Z,99983.72
2023-04-17T12:35:02.287Z,99990.84
2023-04-17T12:38:04.687Z,99987.44
2023-04-17T12:41:07.527Z,99981.72
2023-04-17T12:44:10.093Z,99976.84
2023-04-17T12:47:13.068Z,99969.69
2023-04-17T12:50:15.650Z,99968.84
2023-04-17T12:53:18.801Z,99973.28
2023-04-17T12:56:21.381Z,99960.88
2023-04-17T12:59:24.329Z,99963.16
2023-04-17T13:02:26.762Z,99964.66
2023-04-17T13:05:30.056Z,99955.03
2023-04-17T13:08:32.356Z,99949.28
2023-04-17T13:11:35.655Z,99946.34
2023-04-17T13:14:41.518Z,99943.19
2023-04-17T13:17:45.485Z,99945.03
2023-04-17T13:20:47.880Z,99949.66
2023-04-17T13:23:50.895Z,99950.78
2023-04-17T13:26:55.706Z,99949.22
2023-04-17T13:29:58.894Z,99948.47
2023-04-17T13:33:01.308Z,99952.12
2023-04-17T13:36:04.335Z,99955.63
2023-04-17T13:39:06.648Z,99957.53
2023-04-17T13:42:09.508Z,99961.09
2023-04-17T13:45:12.561Z,99966.38
2023-04-17T13:48:15.594Z,99975.19
2023-04-17T13:51:17.858Z,99966.41
2023-04-17T13:54:20.728Z,99963.94
2023-04-17T13:57:23.052Z,99962.22
2023-04-17T14:00:25.993Z,99958.69
2023-04-17T14:03:29.054Z,99961.31
2023-04-17T14:06:32.343Z,99955.19
2023-04-17T14:09:34.957Z,99956.09
2023-04-17T14:12:37.527Z,99953.44
2023-04-17T14:15:40.427Z,99949.06
2023-04-17T14:18:43.006Z,99956.09
2023-04-17T14:21:45.657Z,99949.97
2023-04-17T14:24:48.199Z,99949.06
2023-04-17T14:27:52.055Z,99946.41
2023-04-17T14:30:54.680Z,99949.94
2023-04-17T14:33:57.293Z,99940.22
2023-04-17T14:36:59.888Z,99933.13
2023-04-17T14:40:04.122Z,99927.88
2023-04-17T14:43:06.720Z,99928.75
2023-04-17T14:46:09.361Z,99923.47
2023-04-17T14:49:12.236Z,99925.22
2023-04-17T14:52:14.934Z,99923.47
2023-04-17T14:55:17.512Z,99926.97
2023-04-17T14:58:20.231Z,99927.00
2023-04-17T15:01:22.840Z,99928.75
2023-04-17T15:04:25.782Z,99924.37
2023-04-17T15:07:28.524Z,99919.97
2023-04-17T15:10:40.498Z,99928.81
2023-04-17T15:13:50.942Z,99926.19
2023-04-17T15:16:54.211Z,99928.84
2023-04-17T15:19:57.629Z,99930.56
2023-04-17T15:23:00.202Z,99928.81
2023-04-17T15:26:02.823Z,99931.44
2023-04-17T15:29:05.723Z,99930.59
2023-04-17T15:32:08.355Z,99933.25
2023-04-17T15:35:13.703Z,99934.97
2023-04-17T15:38:16.268Z,99928.84
2023-04-17T15:41:19.007Z,99925.31
2023-04-17T15:44:21.667Z,99932.37
2023-04-17T15:47:24.267Z,99931.50
2023-04-17T15:50:27.022Z,99937.66
2023-04-17T15:53:29.634Z,99937.63
2023-04-17T15:56:32.188Z,99934.13
2023-04-17T15:59:34.901Z,99939.37
2023-04-17T16:02:37.692Z,99934.94
2023-04-17T16:05:40.426Z,99941.09
2023-04-17T16:08:43.005Z,99934.94
2023-04-17T16:11:48.753Z,99939.34
2023-04-17T16:14:51.295Z,99931.44
2023-04-17T16:17:53.966Z,99931.44
2023-04-17T16:20:56.704Z,99936.69
2023-04-17T16:23:59.303Z,99935.78
2023-04-17T16:27:02.949Z,99941.09
2023-04-17T16:30:07.412Z,99942.81
2023-04-17T16:33:10.153Z,99943.69
2023-04-17T16:36:12.894Z,99935.75
2023-04-17T16:39:15.692Z,99948.09
2023-04-17T16:42:18.420Z,99934.94
2023-04-17T16:45:21.034Z,99941.97
2023-04-17T16:48:23.744Z,99941.91
2023-04-17T16:51:27.090Z,99944.50
2023-04-17T16:54:29.760Z,99940.16
2023-04-17T16:57:32.348Z,99944.50
2023-04-17T17:00:35.032Z,99949.72
2023-04-17T17:03:38.107Z,99952.31
2023-04-17T17:06:41.717Z,99947.03
2023-04-17T17:09:44.385Z,99945.28
2023-04-17T17:12:47.190Z,99949.63
2023-04-17T17:15:49.882Z,99952.31
2023-04-17T17:18:52.711Z,99951.41
2023-04-17T17:21:55.421Z,99954.81
2023-04-17T17:24:58.084Z,99953.91
2023-04-17T17:28:00.826Z,99946.91
2023-04-17T17:31:04.511Z,99959.16
2023-04-17T17:34:24.617Z,99949.47
2023-04-17T17:37:29.102Z,99955.50
2023-04-17T17:40:31.786Z,99954.72
2023-04-17T17:43:34.370Z,99960.78
2023-04-17T17:46:37.033Z,99949.31
2023-04-17T17:49:39.621Z,99955.41
2023-04-17T17:52:42.256Z,99956.28
2023-04-17T17:55:50.319Z,99958.00
2023-04-17T17:58:53.050Z,99960.69
2023-04-17T18:01:55.895Z,99965.06
2023-04-17T18:04:58.968Z,99967.69
2023-04-17T18:08:01.442Z,99971.06
2023-04-17T18:11:04.407Z,99976.34
2023-04-17T18:14:06.833Z,99978.87
2023-04-17T18:17:10.004Z,99987.69
2023-04-17T18:20:12.416Z,99988.47
2023-04-17T18:23:15.532Z,99985.06
2023-04-17T18:26:17.923Z,99989.50
2023-04-17T18:29:20.858Z,99992.97
2023-04-17T18:32:23.370Z,99994.72
2023-04-17T18:35:26.419Z,99992.00
2023-04-17T18:38:28.984Z,100000.72
2023-04-17T18:41:31.968Z,100006.78
2023-04-17T18:44:34.284Z,99997.12
2023-04-17T18:47:37.267Z,99997.97
2023-04-17T18:50:39.608Z,99995.25
2023-04-17T18:53:42.575Z,99999.72
2023-04-17T18:56:45.165Z,100002.22
2023-04-17T18:59:48.063Z,99991.72
2023-04-17T19:02:50.575Z,99998.72
2023-04-17T19:05:53.566Z,100003.03
2023-04-17T19:08:57.117Z,100010.78
2023-04-17T19:12:00.157Z,100011.66
2023-04-17T19:15:02.854Z,100014.34
2023-04-17T19:18:06.799Z,100018.62
2023-04-17T19:21:09.267Z,100028.16
2023-04-17T19:24:12.211Z,100015.81
2023-04-17T19:27:14.727Z,100023.69
2023-04-17T19:30:17.936Z,100021.00
2023-04-17T19:33:20.429Z,100017.47
2023-04-17T19:36:23.425Z,100027.13
2023-04-17T19:39:28.678Z,100021.03
2023-04-17T19:42:31.688Z,100014.09
2023-04-17T19:45:34.565Z,100017.50
2023-04-17T19:48:37.807Z,100021.75
2023-04-17T19:51:40.502Z,100012.97
2023-04-17T19:54:45.481Z,100009.50
2023-04-17T19:57:49.483Z,100015.53
2023-04-17T20:00:52.516Z,100011.97
2023-04-17T20:03:55.217Z,100012.94
2023-04-17T20:06:58.947Z,100016.37
2023-04-17T20:10:01.910Z,100022.41
2023-04-17T20:13:04.533Z,100008.59
2023-04-17T20:16:07.152Z,100008.59
2023-04-17T20:19:09.795Z,100019.00
2023-04-17T20:22:12.434Z,100015.59
2023-04-17T20:25:15.075Z,100013.75
2023-04-17T20:28:17.901Z,100019.00
2023-04-17T20:31:21.271Z,100019.87
2023-04-17T20:34:25.401Z,100021.56
2023-04-17T20:37:28.267Z,100026.72
2023-04-17T20:40:31.056Z,100030.16
2023-04-17T20:43:33.706Z,100032.75
2023-04-17T20:46:36.495Z,100031.03
2023-04-17T20:49:39.489Z,100025.81
2023-04-17T20:52:43.282Z,100032.81
2023-04-17T20:55:47.154Z,100034.47
2023-04-17T20:58:49.837Z,100042.41
2023-04-17T21:01:52.814Z,100039.78
2023-04-17T21:04:55.640Z,100032.91
2023-04-17T21:07:58.369Z,100053.81
2023-04-17T21:11:00.997Z,100051.19
2023-04-17T21:14:03.849Z,100050.22
2023-04-17T21:17:06.532Z,100046.72
2023-04-17T21:20:09.729Z,100037.91
2023-04-17T21:23:12.407Z,100044.84
2023-04-17T21:26:15.123Z,100046.50
2023-04-17T21:29:17.779Z,100049.09
2023-04-17T21:32:23.331Z,100047.31
2023-04-17T21:35:26.014Z,100050.09
2023-04-17T21:38:29.227Z,100041.34
2023-04-17T21:41:31.923Z,100047.22
2023-04-17T21:44:34.468Z,100049.03
2023-04-17T21:47:37.105Z,100047.37
2023-04-17T21:50:41.335Z,100046.34
2023-04-17T21:53:44.058Z,100044.59
2023-04-17T21:56:46.742Z,100043.56
2023-04-17T21:59:49.375Z,100049.53
2023-04-17T22:02:52.207Z,100041.59
2023-04-17T22:05:56.711Z,100053.81
2023-04-17T22:08:59.269Z,100040.03
2023-04-17T22:12:09.980Z,100046.22
2023-04-17T22:15:12.715Z,100045.97
2023-04-17T22:18:15.628Z,100046.06
2023-04-17T22:21:18.197Z,100042.47
2023-04-17T22:24:21.094Z,100047.72
2023-04-17T22:27:24.064Z,100045.94
2023-04-17T22:30:26.706Z,100042.38
2023-04-17T22:33:29.283Z,100051.13
2023-04-17T22:36:32.366Z,100055.50
2023-04-17T22:39:34.957Z,100050.22
2023-04-17T22:42:37.534Z,100059.72
2023-04-17T22:45:40.182Z,100057.97
2023-04-17T22:48:45.092Z,100054.31
2023-04-17T22:51:48.006Z,100058.00
2023-04-17T22:54:50.682Z,100058.78
2023-04-17T22:57:53.312Z,100063.13
2023-04-17T23:00:56.092Z,100063.22
2023-04-17T23:03:58.664Z,100062.19
2023-04-17T23:07:01.250Z,100067.44
2023-04-17T23:10:04.377Z,100067.28
2023-04-17T23:13:06.945Z,100070.84
2023-04-17T23:16:09.878Z,100064.69
2023-04-17T23:19:12.562Z,100062.88
2023-04-17T23:22:15.233Z,100062.16
2023-04-17T23:25:17.834Z,100071.59
2023-04-17T23:28:20.676Z,100065.50
2023-04-17T23:31:23.486Z,100070.91
2023-04-17T23:34:27.483Z,100065.50
2023-04-17T23:37:30.116Z,100070.75
2023-04-17T23:40:34.753Z,100074.13
2023-04-17T23:43:37.509Z,100061.06
2023-04-17T23:46:40.207Z,100059.22
2023-04-17T23:49:42.832Z,100066.12
2023-04-17T23:52:46.205Z,100063.41
2023-04-17T23:55:48.764Z,100065.00
2023-04-17T23:58:51.374Z,100050.78
